KSCD

Merkel Field Sylacauga Municipal Airport

Sylacauga, Alabama, USA
METAR KSCD 181615Z AUTO 05004KT 10SM SCT120 19/10 A3037 RMK AO2 T01910098
Observed Flight Rules
Oct-18 @ 16:15 UTC (21 minutes ago) Visual Flight Rules
Wind Visibility Clouds
50° at 4 knots 10 miles
  • Scattered at 12,000' AGL
Temperatures Readings
Current 19°C / 66°F
Dewpoint 10°C / 50°F
Humidity 56%
Altimeter 30.37" Hg
Pressure 1028 hPa
Elevation 173
METAR KSCD 181615Z AUTO 05004KT 10SM SCT120 19/10 A3037 RMK AO2 T01910098
Observed Flight Rules
Oct-18 @ 16:15 UTC
(21 minutes ago)
VFR
Wind Visibility
50° at 4 knots 10 miles
Clouds
  • Scattered at 12,000' AGL
Temperature Dewpoint
19°C / 66°F 10°C / 50°F
Humidity Altimeter Pressure
56% 30.37" Hg 1028 hPa